Time;durP1;ratioP1;P1;durP2;ratioP2;P2;SDS_P1;SDS_P2;PMS_P1;PMS_P2;Temp;Humidity;BMP_temperature;BMP_pressure;BME280_temperature;BME280_humidity;BME280_pressure;Samples;Min_cycle;Max_cycle;Signal;HPM_P1;HPM_P2
2022/08/06 00:02:08;;;;;;;;;;;;;;;22.52;85.84;153317.09;1766161;80;20169;-75
2022/08/06 00:04:35;;;;;;;;;;;;;;;22.47;85.92;153304.03;1765335;81;21239;-75
2022/08/06 00:07:01;;;;;;;;;;;;;;;22.43;86.19;153293.47;1758028;81;20112;-73
2022/08/06 00:09:32;;;;;;;;;;;;;;;22.43;86.44;153293.47;1757854;80;20484;-74
2022/08/06 00:12:00;;;;;;;;;;;;;;;22.41;86.46;153288.25;1763010;81;20188;-73
2022/08/06 00:14:27;;;;;;;;;;;;;;;22.38;86.51;153280.41;1765718;80;20192;-73
2022/08/06 00:16:54;;;;;;;;;;;;;;;22.30;86.76;153262.11;1758422;80;21211;-73
2022/08/06 00:19:21;;;;;;;;;;;;;;;22.27;87.07;153254.27;1744247;80;20201;-73
2022/08/06 00:21:48;;;;;;;;;;;;;;;22.25;87.12;153247.72;1739305;81;20128;-74
2022/08/06 00:24:14;;;;;;;;;;;;;;;22.22;87.41;153241.20;1739171;81;20629;-73
2022/08/06 00:26:41;;;;;;;;;;;;;;;22.20;87.51;153235.92;1739072;81;20173;-75
2022/08/06 00:29:09;;;;;;;;;;;;;;;22.15;87.66;153222.86;1739130;81;21268;-59
2022/08/06 00:31:36;;;;;;;;;;;;;;;22.13;87.87;153218.97;1739150;81;20946;-59
2022/08/06 00:34:03;;;;;;;;;;;;;;;22.12;88.06;153215.02;1739392;82;20146;-58
2022/08/06 00:36:31;;;;;;;;;;;;;;;22.10;88.22;153209.80;1739602;81;20152;-59
2022/08/06 00:38:59;;;;;;;;;;;;;;;22.08;88.43;153204.56;1739051;82;20492;-59
2022/08/06 00:41:26;;;;;;;;;;;;;;;22.08;88.78;153204.56;1739523;81;21138;-76
2022/08/06 00:43:53;;;;;;;;;;;;;;;22.11;88.61;153213.73;1739189;81;20457;-75
2022/08/06 00:46:20;;;;;;;;;;;;;;;22.11;88.69;153212.41;1727007;82;20129;-75
2022/08/06 00:48:46;;;;;;;;;;;;;;;22.10;88.51;153209.80;1739088;82;20649;-74
2022/08/06 00:51:13;;;;;;;;;;;;;;;22.06;88.73;153200.63;1739153;82;20156;-74
2022/08/06 00:53:40;;;;;;;;;;;;;;;22.06;88.87;153199.34;1738952;81;21312;-74
2022/08/06 00:56:07;;;;;;;;;;;;;;;22.04;88.80;153196.72;1739122;82;20181;-76
2022/08/06 00:58:33;;;;;;;;;;;;;;;21.97;89.06;153178.39;1739320;81;20193;-57
2022/08/06 01:01:00;;;;;;;;;;;;;;;21.96;89.39;153175.78;1739259;81;20684;-58
2022/08/06 01:03:27;;;;;;;;;;;;;;;21.93;89.48;153166.66;1739199;81;20200;-75
2022/08/06 01:05:54;;;;;;;;;;;;;;;21.89;89.87;153157.48;1732329;82;21504;-75
2022/08/06 01:08:21;;;;;;;;;;;;;;;21.86;90.04;153149.66;1728886;81;20131;-75
2022/08/06 01:10:48;;;;;;;;;;;;;;;21.86;90.13;153149.66;1736652;81;20440;-76
2022/08/06 01:13:15;;;;;;;;;;;;;;;21.82;90.21;153140.47;1774207;80;20457;-75
2022/08/06 01:15:44;;;;;;;;;;;;;;;21.79;90.44;153131.36;1774085;79;20180;-76
2022/08/06 01:18:13;;;;;;;;;;;;;;;21.78;90.66;153128.75;1764671;80;21147;-76
2022/08/06 01:21:03;;;;;;;;;;;;;;;21.75;90.82;153123.47;1738112;82;21141;-59
2022/08/06 01:23:49;;;;;;;;;;;;;;;21.74;90.83;153120.86;1739270;82;20203;-59
2022/08/06 01:26:49;;;;;;;;;;;;;;;21.71;91.05;153111.73;1739371;81;20168;-75
2022/08/06 01:29:26;;;;;;;;;;;;;;;21.65;91.31;153096.02;1739312;81;20156;-58
2022/08/06 01:32:02;;;;;;;;;;;;;;;21.61;91.57;153088.13;1739186;82;21136;-58
2022/08/06 01:34:39;;;;;;;;;;;;;;;21.58;91.84;153079.00;1738935;81;20571;-58
2022/08/06 01:37:15;;;;;;;;;;;;;;;21.56;92.11;153073.78;1738933;81;20137;-59
2022/08/06 01:39:42;;;;;;;;;;;;;;;21.57;92.42;153076.39;1738240;82;20232;-59
2022/08/06 01:42:09;;;;;;;;;;;;;;;21.58;92.50;153079.00;1739300;82;20137;-58
2022/08/06 01:44:37;;;;;;;;;;;;;;;21.57;92.70;153076.39;1739192;81;21236;-58
2022/08/06 01:47:06;;;;;;;;;;;;;;;21.60;92.98;153084.23;1739165;82;20149;-58
2022/08/06 01:49:33;;;;;;;;;;;;;;;21.60;92.83;153085.52;1739456;82;20204;-58
2022/08/06 01:52:00;;;;;;;;;;;;;;;21.59;92.81;153081.63;1739060;81;20592;-57
2022/08/06 01:54:28;;;;;;;;;;;;;;;21.56;92.99;153073.78;1739284;81;20180;-58
2022/08/06 01:56:55;;;;;;;;;;;;;;;21.52;93.22;153063.28;1739188;81;21237;-76
2022/08/06 01:59:25;;;;;;;;;;;;;;;21.51;93.38;153060.67;1739007;82;20254;-76
2022/08/06 02:01:53;;;;;;;;;;;;;;;21.47;93.68;153052.83;1739170;81;20169;-76
2022/08/06 02:04:21;;;;;;;;;;;;;;;21.47;93.99;153052.83;1739274;81;20196;-76
2022/08/06 02:06:47;;;;;;;;;;;;;;;21.45;94.23;153047.61;1729395;81;20183;-76
2022/08/06 02:09:17;;;;;;;;;;;;;;;21.42;94.52;153038.44;1729517;82;21154;-75
2022/08/06 02:11:49;;;;;;;;;;;;;;;21.38;94.89;153028.00;1745973;81;20591;-76
2022/08/06 02:14:16;;;;;;;;;;;;;;;21.33;95.36;153016.22;1760621;80;20129;-76
2022/08/06 02:16:43;;;;;;;;;;;;;;;21.35;95.41;153021.50;1749813;80;20221;-75
2022/08/06 02:19:13;;;;;;;;;;;;;;;21.34;95.47;153018.88;1737142;82;20438;-58
2022/08/06 02:21:41;;;;;;;;;;;;;;;21.33;95.57;153016.22;1739295;82;22822;-58
2022/08/06 02:24:08;;;;;;;;;;;;;;;21.31;95.71;153011.00;1739486;81;20316;-58
2022/08/06 02:26:36;;;;;;;;;;;;;;;21.28;96.02;153003.16;1739333;82;20152;-58
2022/08/06 02:29:06;;;;;;;;;;;;;;;21.26;96.35;152997.94;1725646;82;20097;-58
2022/08/06 02:31:33;;;;;;;;;;;;;;;21.24;96.68;152992.72;1738897;82;20466;-60
2022/08/06 02:34:00;;;;;;;;;;;;;;;21.22;96.87;152987.48;1738963;82;21268;-59
2022/08/06 02:36:42;;;;;;;;;;;;;;;21.18;97.35;152979.66;1740203;81;20188;-59
2022/08/06 02:39:21;;;;;;;;;;;;;;;21.18;97.80;152979.66;1739773;81;20130;-58
2022/08/06 02:42:03;;;;;;;;;;;;;;;21.17;98.01;152975.70;1738839;82;20188;-58
2022/08/06 02:45:00;;;;;;;;;;;;;;;21.13;98.36;152966.59;1722206;82;20437;-58
2022/08/06 02:47:58;;;;;;;;;;;;;;;21.13;98.81;152966.59;1738958;82;21109;-58
2022/08/06 02:50:31;;;;;;;;;;;;;;;21.13;98.81;152966.59;1738908;82;20436;-58
2022/08/06 02:53:06;;;;;;;;;;;;;;;21.13;98.94;152965.27;1739170;82;20304;-58
2022/08/06 02:55:34;;;;;;;;;;;;;;;21.16;99.50;152973.09;1738949;82;20196;-58
2022/08/06 02:58:20;;;;;;;;;;;;;;;21.23;99.72;152991.42;1739337;82;20691;-58
2022/08/06 03:00:47;;;;;;;;;;;;;;;21.29;99.51;153005.78;1738893;81;21135;-58
2022/08/06 03:03:14;;;;;;;;;;;;;;;21.33;99.19;153016.22;1739377;82;20128;-58
2022/08/06 03:05:42;;;;;;;;;;;;;;;21.33;98.99;153016.22;1739056;82;20670;-58
2022/08/06 03:08:08;;;;;;;;;;;;;;;21.32;98.81;153013.61;1739659;82;20097;-57
2022/08/06 03:10:35;;;;;;;;;;;;;;;21.31;98.99;153011.00;1741093;80;20220;-58
2022/08/06 03:13:04;;;;;;;;;;;;;;;21.31;99.13;153011.00;1764576;80;21532;-58
2022/08/06 03:15:31;;;;;;;;;;;;;;;21.31;99.22;153011.00;1765437;80;20207;-58
2022/08/06 03:18:00;;;;;;;;;;;;;;;21.32;99.25;153014.94;1774744;80;20205;-58
2022/08/06 03:20:26;;;;;;;;;;;;;;;21.30;99.20;153008.38;1778790;80;20464;-59
2022/08/06 03:22:55;;;;;;;;;;;;;;;21.30;99.36;153009.72;1778794;80;20163;-58
2022/08/06 03:25:22;;;;;;;;;;;;;;;21.34;99.59;153018.88;1778815;79;21174;-58
2022/08/06 03:27:49;;;;;;;;;;;;;;;21.40;99.47;153034.55;1778636;79;20106;-59
2022/08/06 03:30:16;;;;;;;;;;;;;;;21.45;99.21;153046.33;1778764;80;20129;-59
2022/08/06 03:32:44;;;;;;;;;;;;;;;21.47;99.17;153052.83;1778685;79;20442;-57
2022/08/06 03:35:11;;;;;;;;;;;;;;;21.54;99.11;153068.50;1778696;79;20143;-58
2022/08/06 03:37:37;;;;;;;;;;;;;;;21.62;98.89;153089.45;1778848;79;21234;-59
2022/08/06 03:40:05;;;;;;;;;;;;;;;21.70;98.51;153110.41;1778494;79;20174;-59
2022/08/06 03:42:32;;;;;;;;;;;;;;;21.78;98.01;153128.75;1778408;79;20173;-57
2022/08/06 03:44:59;;;;;;;;;;;;;;;21.82;97.59;153140.47;1778529;80;20170;-57
2022/08/06 03:47:32;;;;;;;;;;;;;;;21.90;97.35;153160.09;1778648;79;20471;-75
2022/08/06 03:49:59;;;;;;;;;;;;;;;21.97;96.73;153177.11;1778863;79;20141;-76
2022/08/06 03:52:27;;;;;;;;;;;;;;;22.04;96.04;153196.72;1778493;79;20182;-74
2022/08/06 03:54:56;;;;;;;;;;;;;;;22.08;95.60;153204.56;1778302;80;20229;-75
2022/08/06 03:57:26;;;;;;;;;;;;;;;22.10;95.16;153209.80;1778055;79;20186;-75
2022/08/06 03:59:58;;;;;;;;;;;;;;;22.13;94.55;153217.63;1778118;79;20293;-75
2022/08/06 04:02:22;;;;;;;;;;;;;;;22.10;94.35;153211.08;1779208;79;21101;-75
2022/08/06 04:04:49;;;;;;;;;;;;;;;22.04;94.36;153196.72;1772892;80;20202;-59
2022/08/06 04:07:15;;;;;;;;;;;;;;;22.00;94.78;153186.28;1747694;80;20473;-58
2022/08/06 04:09:42;;;;;;;;;;;;;;;22.03;94.93;153194.11;1747590;82;21465;-58
2022/08/06 04:12:09;;;;;;;;;;;;;;;22.09;95.03;153207.19;1792854;79;20430;-58
2022/08/06 04:14:36;;;;;;;;;;;;;;;22.19;94.95;153233.31;1810440;79;21850;-58
2022/08/06 04:17:03;;;;;;;;;;;;;;;22.29;94.69;153259.50;1808044;79;20198;-59
2022/08/06 04:19:30;;;;;;;;;;;;;;;22.41;94.03;153288.25;1776574;78;20124;-58
2022/08/06 04:21:57;;;;;;;;;;;;;;;22.48;93.66;153306.64;1770407;79;20188;-59
2022/08/06 04:24:23;;;;;;;;;;;;;;;22.54;93.12;153322.31;1770683;81;20211;-58
2022/08/06 04:26:52;;;;;;;;;;;;;;;22.61;92.86;153340.63;1751348;81;21345;-58
2022/08/06 04:29:20;;;;;;;;;;;;;;;22.68;92.46;153356.34;1770947;79;20172;-58
2022/08/06 04:31:48;;;;;;;;;;;;;;;22.72;91.95;153366.81;1770322;80;20458;-59
2022/08/06 04:34:19;;;;;;;;;;;;;;;22.75;92.21;153374.66;1771143;81;20196;-59
2022/08/06 04:36:46;;;;;;;;;;;;;;;22.86;91.99;153402.13;1770366;80;20429;-58
2022/08/06 04:39:12;;;;;;;;;;;;;;;22.97;91.56;153429.59;1770546;81;22131;-59
2022/08/06 04:41:39;;;;;;;;;;;;;;;23.06;91.18;153453.13;1770430;80;20498;-59
2022/08/06 04:44:06;;;;;;;;;;;;;;;23.18;90.88;153484.56;1770600;81;20157;-59
2022/08/06 04:46:34;;;;;;;;;;;;;;;23.31;90.30;153516.00;1749551;81;20414;-58
2022/08/06 04:49:01;;;;;;;;;;;;;;;23.42;89.17;153544.81;1770413;79;20160;-58
2022/08/06 04:51:27;;;;;;;;;;;;;;;23.52;89.18;153568.34;1770509;79;21131;-58
2022/08/06 04:53:54;;;;;;;;;;;;;;;23.64;88.24;153598.44;1770366;80;20537;-58
2022/08/06 04:56:21;;;;;;;;;;;;;;;23.74;87.46;153625.94;1770418;79;20224;-59
2022/08/06 04:58:48;;;;;;;;;;;;;;;23.88;86.85;153659.98;1770244;79;20397;-58
2022/08/06 05:01:14;;;;;;;;;;;;;;;23.97;86.21;153682.25;1770336;81;20243;-58
2022/08/06 05:03:41;;;;;;;;;;;;;;;24.09;85.86;153712.41;1770416;81;21234;-58
2022/08/06 05:06:20;;;;;;;;;;;;;;;24.21;85.34;153742.53;1753360;81;20425;-58
2022/08/06 05:08:50;;;;;;;;;;;;;;;24.36;85.14;153781.81;1746826;81;20196;-58
2022/08/06 05:11:28;;;;;;;;;;;;;;;24.58;84.32;153838.11;1757840;80;20173;-58
2022/08/06 05:14:02;;;;;;;;;;;;;;;24.78;83.55;153887.94;1777136;80;20213;-78
2022/08/06 05:16:31;;;;;;;;;;;;;;;24.96;82.56;153932.48;1779758;80;21147;-78
2022/08/06 05:18:58;;;;;;;;;;;;;;;25.08;82.29;153963.89;1765103;79;20164;-59
2022/08/06 05:21:28;;;;;;;;;;;;;;;25.24;82.06;154003.22;1753444;81;20481;-59
2022/08/06 05:23:54;;;;;;;;;;;;;;;25.39;81.20;154041.20;1752896;82;20493;-59
2022/08/06 05:26:21;;;;;;;;;;;;;;;25.50;80.83;154070.09;1753208;81;20163;-58
2022/08/06 05:28:48;;;;;;;;;;;;;;;25.64;80.13;154104.14;1752683;82;20786;-58
2022/08/06 05:31:14;;;;;;;;;;;;;;;25.76;79.83;154134.33;1753023;81;20136;-78
2022/08/06 05:33:41;;;;;;;;;;;;;;;25.83;79.27;154152.66;1752930;81;20203;-78
2022/08/06 05:36:11;;;;;;;;;;;;;;;25.81;78.88;154147.42;1753109;81;20165;-76
2022/08/06 05:38:39;;;;;;;;;;;;;;;25.75;78.69;154133.00;1753174;82;20182;-76
2022/08/06 05:41:07;;;;;;;;;;;;;;;25.70;78.79;154119.91;1753067;82;21870;-77
2022/08/06 05:43:35;;;;;;;;;;;;;;;25.64;78.54;154105.47;1753095;81;20147;-59
2022/08/06 05:46:11;;;;;;;;;;;;;;;25.64;78.92;154104.14;1753262;82;20136;-58
2022/08/06 05:48:40;;;;;;;;;;;;;;;25.67;78.87;154112.05;1753288;82;20188;-77
2022/08/06 05:51:13;;;;;;;;;;;;;;;25.62;77.97;154098.91;1753318;82;20148;-77
2022/08/06 05:53:52;;;;;;;;;;;;;;;25.42;78.44;154049.06;1753230;82;22085;-77
2022/08/06 05:56:25;;;;;;;;;;;;;;;25.38;79.45;154039.91;1753159;82;20507;-77
2022/08/06 05:58:55;;;;;;;;;;;;;;;25.45;79.73;154056.95;1753296;82;20191;-77
2022/08/06 06:01:22;;;;;;;;;;;;;;;25.59;79.63;154092.38;1753241;81;20164;-76
2022/08/06 06:03:49;;;;;;;;;;;;;;;25.70;78.83;154121.19;1753250;82;20180;-77
2022/08/06 06:06:16;;;;;;;;;;;;;;;25.77;78.19;154138.23;1753345;81;20484;-77
2022/08/06 06:08:43;;;;;;;;;;;;;;;25.79;77.25;154142.19;1753181;81;20198;-75
2022/08/06 06:11:10;;;;;;;;;;;;;;;25.73;77.41;154129.05;1751539;81;20406;-77
2022/08/06 06:13:38;;;;;;;;;;;;;;;25.77;77.82;154136.95;1766647;81;20733;-59
2022/08/06 06:16:11;;;;;;;;;;;;;;;25.87;77.13;154164.47;1748808;80;20140;-59
2022/08/06 06:18:50;;;;;;;;;;;;;;;26.03;76.96;154203.75;1758898;80;21137;-77
2022/08/06 06:21:24;;;;;;;;;;;;;;;26.18;76.36;154241.81;1789201;80;20162;-77
2022/08/06 06:24:02;;;;;;;;;;;;;;;26.32;74.72;154277.25;1789228;80;20228;-79
2022/08/06 06:26:48;;;;;;;;;;;;;;;26.44;74.51;154307.41;1787653;80;20468;-77
2022/08/06 06:29:24;;;;;;;;;;;;;;;26.52;73.53;154327.03;1777770;80;20138;-58
2022/08/06 06:32:16;;;;;;;;;;;;;;;26.52;73.25;154328.36;1789296;80;21258;-58
2022/08/06 06:34:55;;;;;;;;;;;;;;;26.52;73.75;154328.36;1789149;80;20201;-58
2022/08/06 06:37:31;;;;;;;;;;;;;;;26.59;73.93;154345.41;1789356;80;20206;-58
2022/08/06 06:40:24;;;;;;;;;;;;;;;26.68;72.85;154367.70;1788547;80;20515;-59
2022/08/06 06:43:01;;;;;;;;;;;;;;;26.54;73.23;154332.31;1788424;80;20168;-77
2022/08/06 06:45:42;;;;;;;;;;;;;;;26.46;74.07;154312.64;1788600;80;21120;-77
2022/08/06 06:48:14;;;;;;;;;;;;;;;26.54;74.29;154332.31;1788618;79;20098;-77
2022/08/06 06:50:45;;;;;;;;;;;;;;;26.57;73.99;154340.17;1787784;80;20193;-76
2022/08/06 06:53:12;;;;;;;;;;;;;;;26.52;74.21;154328.36;1789160;80;20589;-77
2022/08/06 06:55:46;;;;;;;;;;;;;;;26.50;74.60;154323.12;1788531;80;20213;-75
2022/08/06 06:58:16;;;;;;;;;;;;;;;26.49;74.11;154319.16;1789214;80;21953;-77
2022/08/06 07:00:42;;;;;;;;;;;;;;;26.38;75.03;154292.97;1788429;80;20186;-76
2022/08/06 07:03:09;;;;;;;;;;;;;;;26.39;75.15;154295.59;1788920;80;20158;-76
2022/08/06 07:05:37;;;;;;;;;;;;;;;26.47;75.14;154315.27;1773328;80;20136;-76
2022/08/06 07:08:04;;;;;;;;;;;;;;;26.52;75.07;154328.36;1757968;81;20180;-75
2022/08/06 07:10:31;;;;;;;;;;;;;;;26.58;74.95;154342.78;1760397;78;21239;-77
2022/08/06 07:12:59;;;;;;;;;;;;;;;26.72;74.39;154378.19;1816058;79;20404;-76
2022/08/06 07:15:26;;;;;;;;;;;;;;;26.73;74.24;154382.09;1816426;79;20224;-75
2022/08/06 07:17:53;;;;;;;;;;;;;;;26.68;74.24;154367.70;1802091;79;20484;-76
2022/08/06 07:20:25;;;;;;;;;;;;;;;26.62;74.51;154353.27;1754938;81;20149;-76
2022/08/06 07:22:53;;;;;;;;;;;;;;;26.61;74.69;154350.66;1754305;80;21100;-75
2022/08/06 07:25:20;;;;;;;;;;;;;;;26.67;74.73;154365.09;1754663;81;20192;-76
2022/08/06 07:27:49;;;;;;;;;;;;;;;26.71;74.54;154375.56;1754347;81;20194;-76
2022/08/06 07:30:18;;;;;;;;;;;;;;;26.81;74.50;154400.48;1754891;81;20105;-76
2022/08/06 07:32:45;;;;;;;;;;;;;;;26.88;74.25;154418.88;1754728;80;20312;-77
2022/08/06 07:35:12;;;;;;;;;;;;;;;26.90;73.81;154422.83;1754481;81;21144;-77
2022/08/06 07:37:58;;;;;;;;;;;;;;;26.87;73.97;154417.59;1754684;81;20260;-76
2022/08/06 07:40:27;;;;;;;;;;;;;;;26.92;74.30;154428.08;1735385;81;20327;-76
2022/08/06 07:42:56;;;;;;;;;;;;;;;27.04;73.55;154459.52;1754736;81;20909;-77
2022/08/06 07:45:23;;;;;;;;;;;;;;;27.07;73.18;154467.39;1753820;81;20469;-77
2022/08/06 07:47:50;;;;;;;;;;;;;;;27.13;73.01;154483.16;1754531;80;21224;-76
2022/08/06 07:50:16;;;;;;;;;;;;;;;27.15;72.65;154488.41;1754530;80;20455;-76
2022/08/06 07:52:43;;;;;;;;;;;;;;;27.16;72.74;154491.03;1754455;81;20181;-77
2022/08/06 07:55:13;;;;;;;;;;;;;;;27.24;72.63;154510.70;1754404;80;20154;-77
2022/08/06 07:57:40;;;;;;;;;;;;;;;27.32;72.75;154530.38;1754520;80;20221;-76
2022/08/06 08:00:08;;;;;;;;;;;;;;;27.40;71.43;154551.34;1754642;80;20848;-76
2022/08/06 08:02:37;;;;;;;;;;;;;;;27.36;71.41;154540.88;1736001;81;20168;-77
2022/08/06 08:07:49;;;;;;;;;;;;;;;27.27;70.72;154517.23;1739157;82;20167;-77
2022/08/06 08:10:17;;;;;;;;;;;;;;;27.23;70.09;154506.75;1739302;82;20395;-77
2022/08/06 08:12:44;;;;;;;;;;;;;;;27.25;70.62;154511.98;1768340;81;21198;-77
2022/08/06 08:15:12;;;;;;;;;;;;;;;27.29;70.49;154522.47;1769568;79;38506;-77
2022/08/06 08:17:38;;;;;;;;;;;;;;;27.32;69.63;154530.38;1767102;81;20222;-77
2022/08/06 08:20:06;;;;;;;;;;;;;;;27.32;69.88;154530.38;1738851;81;20697;-76
2022/08/06 08:22:33;;;;;;;;;;;;;;;27.41;69.38;154552.64;1739192;82;20248;-76
2022/08/06 08:25:00;;;;;;;;;;;;;;;27.55;68.73;154588.16;1738670;81;21110;-77
2022/08/06 08:27:27;;;;;;;;;;;;;;;27.67;67.85;154618.31;1738711;81;20144;-77
2022/08/06 08:29:54;;;;;;;;;;;;;;;27.81;66.18;154653.75;1738523;81;20201;-77
2022/08/06 08:32:21;;;;;;;;;;;;;;;27.88;65.19;154672.09;1738661;81;20513;-76
2022/08/06 08:34:48;;;;;;;;;;;;;;;27.90;64.51;154677.34;1738563;81;20509;-78
2022/08/06 08:37:15;;;;;;;;;;;;;;;27.90;64.11;154677.34;1739196;81;21222;-78
2022/08/06 08:39:42;;;;;;;;;;;;;;;27.90;64.22;154677.34;1738870;82;20220;-77
2022/08/06 08:42:33;;;;;;;;;;;;;;;27.89;64.34;154674.72;1738998;82;20173;-78
2022/08/06 08:45:00;;;;;;;;;;;;;;;27.81;64.29;154653.75;1739104;81;20453;-75
2022/08/06 08:47:29;;;;;;;;;;;;;;;27.80;65.39;154652.41;1739443;82;20177;-76
2022/08/06 08:49:57;;;;;;;;;;;;;;;27.89;64.81;154674.72;1739113;81;21226;-76
2022/08/06 08:52:28;;;;;;;;;;;;;;;27.91;64.47;154679.97;1739464;82;20149;-76
2022/08/06 08:54:56;;;;;;;;;;;;;;;27.86;65.07;154666.84;1738785;81;20201;-76
2022/08/06 08:57:22;;;;;;;;;;;;;;;27.90;64.79;154677.34;1739190;81;20607;-77
2022/08/06 08:59:49;;;;;;;;;;;;;;;27.95;64.63;154689.16;1738995;81;20149;-77
2022/08/06 09:02:16;;;;;;;;;;;;;;;28.00;64.04;154702.28;1739433;81;21234;-77
2022/08/06 09:04:43;;;;;;;;;;;;;;;28.05;63.29;154714.09;1738951;81;20176;-77
2022/08/06 09:07:09;;;;;;;;;;;;;;;28.03;62.79;154711.47;1718048;82;20129;-76
2022/08/06 09:09:39;;;;;;;;;;;;;;;28.06;62.60;154716.72;1739172;82;20445;-77
2022/08/06 09:12:07;;;;;;;;;;;;;;;28.06;61.41;154716.72;1731415;82;20119;-77
2022/08/06 09:14:36;;;;;;;;;;;;;;;28.10;61.83;154727.20;1728244;83;21139;-77
2022/08/06 09:17:03;;;;;;;;;;;;;;;28.09;61.60;154724.58;1727286;83;20167;-76
2022/08/06 09:19:30;;;;;;;;;;;;;;;28.11;61.94;154729.83;1763212;81;20126;-77
2022/08/06 09:21:57;;;;;;;;;;;;;;;28.18;60.87;154746.94;1769475;81;20146;-75
2022/08/06 09:24:24;;;;;;;;;;;;;;;28.26;59.61;154769.27;1769781;81;20213;-75
2022/08/06 09:27:10;;;;;;;;;;;;;;;28.36;58.88;154792.88;1769232;81;22156;-77
2022/08/06 09:29:55;;;;;;;;;;;;;;;28.44;58.44;154815.19;1769766;81;20206;-76
2022/08/06 09:32:43;;;;;;;;;;;;;;;28.52;58.36;154834.88;1770120;81;20190;-77
2022/08/06 09:35:21;;;;;;;;;;;;;;;28.52;58.17;154834.88;1770101;81;20126;-77
2022/08/06 09:37:49;;;;;;;;;;;;;;;28.54;57.89;154840.13;1770056;81;20159;-77
2022/08/06 09:40:17;;;;;;;;;;;;;;;28.59;57.80;154853.23;1770164;81;21214;-77
2022/08/06 09:42:48;;;;;;;;;;;;;;;28.68;57.74;154874.27;1769419;81;20103;-77
2022/08/06 09:45:16;;;;;;;;;;;;;;;28.72;57.18;154884.77;1769514;81;20170;-77
2022/08/06 09:47:43;;;;;;;;;;;;;;;28.69;56.85;154876.89;1769357;81;20194;-76
2022/08/06 09:50:09;;;;;;;;;;;;;;;28.72;56.96;154884.77;1769655;81;20139;-78
2022/08/06 09:52:36;;;;;;;;;;;;;;;28.78;56.52;154900.50;1770087;81;21124;-77
2022/08/06 09:55:04;;;;;;;;;;;;;;;28.90;55.82;154929.45;1769788;81;20207;-77
2022/08/06 09:57:44;;;;;;;;;;;;;;;28.95;55.80;154942.58;1769859;81;20226;-78
2022/08/06 10:00:11;;;;;;;;;;;;;;;28.96;55.41;154945.19;1769294;81;20166;-77
2022/08/06 10:02:38;;;;;;;;;;;;;;;29.02;55.47;154960.94;1770114;81;20149;-77
2022/08/06 10:05:11;;;;;;;;;;;;;;;29.06;55.04;154970.14;1760889;81;22206;-77
2022/08/06 10:07:37;;;;;;;;;;;;;;;29.11;54.88;154984.59;1739322;81;20426;-78
2022/08/06 10:10:05;;;;;;;;;;;;;;;29.14;54.32;154991.12;1739399;81;20176;-77
2022/08/06 10:12:32;;;;;;;;;;;;;;;29.14;54.28;154991.12;1798720;79;20613;-79
2022/08/06 10:14:59;;;;;;;;;;;;;;;29.15;54.04;154993.75;1807199;78;20229;-77
2022/08/06 10:17:27;;;;;;;;;;;;;;;29.18;54.21;155000.34;1807114;79;21234;-78
2022/08/06 10:20:08;;;;;;;;;;;;;;;29.21;54.07;155008.22;1738937;82;20508;-77
2022/08/06 10:22:34;;;;;;;;;;;;;;;29.22;53.95;155012.17;1739289;82;20172;-77
2022/08/06 10:25:03;;;;;;;;;;;;;;;29.25;53.99;155020.05;1739435;82;20140;-78
2022/08/06 10:27:34;;;;;;;;;;;;;;;29.25;53.82;155018.70;1739392;82;20172;-78
2022/08/06 10:30:03;;;;;;;;;;;;;;;29.28;53.88;155027.92;1739517;82;21083;-79
2022/08/06 10:32:39;;;;;;;;;;;;;;;29.27;54.28;155023.95;1739387;82;20168;-79
2022/08/06 10:35:07;;;;;;;;;;;;;;;29.30;53.54;155031.88;1739219;82;20220;-79
2022/08/06 10:37:36;;;;;;;;;;;;;;;29.29;53.13;155029.20;1739395;82;20450;-78
2022/08/06 10:40:03;;;;;;;;;;;;;;;29.28;52.60;155026.58;1739317;82;20196;-78
2022/08/06 10:42:30;;;;;;;;;;;;;;;29.34;52.02;155041.03;1739580;82;21220;-78
2022/08/06 10:44:57;;;;;;;;;;;;;;;29.41;52.22;155060.78;1739680;82;20463;-77
2022/08/06 10:47:24;;;;;;;;;;;;;;;29.51;51.98;155085.73;1739383;82;20136;-77
2022/08/06 10:49:52;;;;;;;;;;;;;;;29.61;51.17;155109.36;1739432;82;20177;-77
2022/08/06 10:52:18;;;;;;;;;;;;;;;29.64;51.08;155118.56;1739725;82;20517;-79
2022/08/06 10:54:45;;;;;;;;;;;;;;;29.71;51.01;155136.94;1739555;82;22141;-78
2022/08/06 10:57:15;;;;;;;;;;;;;;;29.72;49.76;155139.56;1739414;82;20157;-79
2022/08/06 10:59:42;;;;;;;;;;;;;;;29.71;49.75;155136.94;1739409;82;20210;-78
2022/08/06 11:02:27;;;;;;;;;;;;;;;29.71;49.64;155136.94;1739275;82;20172;-78
2022/08/06 11:04:57;;;;;;;;;;;;;;;29.69;49.50;155131.69;1745769;81;20178;-78
2022/08/06 11:07:52;;;;;;;;;;;;;;;29.70;49.28;155134.31;1769973;81;21071;-78
2022/08/06 11:10:28;;;;;;;;;;;;;;;29.71;49.18;155136.94;1769760;81;20303;-79
2022/08/06 11:13:29;;;;;;;;;;;;;;;29.73;48.61;155142.25;1769738;81;20158;-78
2022/08/06 11:15:56;;;;;;;;;;;;;;;29.67;48.56;155125.16;1769895;81;20473;-79
2022/08/06 11:18:23;;;;;;;;;;;;;;;29.62;48.94;155111.98;1780669;79;20170;-80
2022/08/06 11:20:52;;;;;;;;;;;;;;;29.62;48.44;155113.31;1798371;79;21246;-78
2022/08/06 11:23:24;;;;;;;;;;;;;;;29.61;48.48;155109.36;1798839;79;20250;-79
2022/08/06 11:25:55;;;;;;;;;;;;;;;29.59;48.21;155106.73;1798367;79;20202;-77
2022/08/06 11:28:34;;;;;;;;;;;;;;;29.56;49.00;155097.58;1798489;79;20634;-77
2022/08/06 11:31:02;;;;;;;;;;;;;;;29.61;49.24;155109.36;1798454;79;20237;-77
2022/08/06 11:33:38;;;;;;;;;;;;;;;29.68;49.23;155129.06;1798046;79;21511;-78
2022/08/06 11:36:12;;;;;;;;;;;;;;;29.76;49.02;155147.50;1798111;79;20178;-77
2022/08/06 11:38:51;;;;;;;;;;;;;;;29.81;48.14;155160.61;1796524;79;20510;-77
2022/08/06 11:41:29;;;;;;;;;;;;;;;29.81;48.06;155160.61;1798514;79;20131;-76
2022/08/06 11:43:59;;;;;;;;;;;;;;;29.85;48.08;155172.44;1797993;79;20592;-59
2022/08/06 11:46:27;;;;;;;;;;;;;;;29.88;48.04;155178.98;1798258;79;21234;-60
2022/08/06 11:49:03;;;;;;;;;;;;;;;29.93;48.04;155192.11;1798365;79;20231;-59
2022/08/06 11:51:53;;;;;;;;;;;;;;;29.99;48.23;155206.56;1798385;79;20426;-60
2022/08/06 11:54:28;;;;;;;;;;;;;;;30.05;48.41;155222.38;1798402;79;20159;-59
2022/08/06 11:57:06;;;;;;;;;;;;;;;30.11;48.40;155238.17;1798170;79;20170;-59
2022/08/06 11:59:38;;;;;;;;;;;;;;;30.15;47.75;155247.33;1798361;79;21214;-60
2022/08/06 12:02:06;;;;;;;;;;;;;;;30.13;47.53;155242.08;1782242;79;20202;-59
2022/08/06 12:04:40;;;;;;;;;;;;;;;30.12;47.57;155239.45;1797017;79;20126;-60
2022/08/06 12:07:22;;;;;;;;;;;;;;;30.19;47.60;155257.88;1769332;81;20202;-60
2022/08/06 12:10:11;;;;;;;;;;;;;;;30.29;46.96;155284.13;1770166;81;20451;-60
2022/08/06 12:12:42;;;;;;;;;;;;;;;30.41;46.20;155314.34;1741281;81;21118;-59
2022/08/06 12:15:16;;;;;;;;;;;;;;;30.52;46.24;155341.94;1738901;82;20465;-59
2022/08/06 12:17:58;;;;;;;;;;;;;;;30.65;46.47;155373.55;1741975;81;20189;-60
2022/08/06 12:20:37;;;;;;;;;;;;;;;30.73;46.68;155395.89;1767351;81;20206;-59
2022/08/06 12:23:09;;;;;;;;;;;;;;;30.77;46.75;155405.06;1767099;81;20130;-59
2022/08/06 12:25:41;;;;;;;;;;;;;;;30.79;45.78;155410.31;1767431;80;22703;-59
2022/08/06 12:28:09;;;;;;;;;;;;;;;30.79;45.66;155410.31;1734953;82;20171;-59
2022/08/06 12:30:52;;;;;;;;;;;;;;;30.83;45.76;155420.81;1766955;81;20182;-60
2022/08/06 12:33:20;;;;;;;;;;;;;;;30.97;45.77;155456.34;1735205;82;20175;-59
2022/08/06 12:36:00;;;;;;;;;;;;;;;31.14;44.95;155499.69;1767273;81;20122;-61
2022/08/06 12:38:29;;;;;;;;;;;;;;;31.25;44.73;155527.34;1734979;82;21153;-59
2022/08/06 12:41:04;;;;;;;;;;;;;;;31.34;44.59;155549.70;1767061;81;20234;-58
2022/08/06 12:43:34;;;;;;;;;;;;;;;31.40;44.38;155565.47;1735273;82;20123;-59
2022/08/06 12:46:06;;;;;;;;;;;;;;;31.44;44.33;155574.67;1766515;81;20479;-59
2022/08/06 12:48:36;;;;;;;;;;;;;;;31.46;44.32;155578.59;1734260;82;20488;-59
2022/08/06 12:51:11;;;;;;;;;;;;;;;31.49;44.53;155586.47;1766500;81;22520;-59
2022/08/06 12:53:43;;;;;;;;;;;;;;;31.55;44.34;155603.56;1734769;82;20491;-59
2022/08/06 12:56:10;;;;;;;;;;;;;;;31.62;44.23;155620.67;1764937;81;20126;-59